sensor_id;sensor_type;location;lat;lon;timestamp;pressure;altitude;pressure_sealevel;temperature;humidity
6532;BME280;3299;42.004;24.868;2023-04-23T00:00:37;98211.78;;;11.81;100.00
6532;BME280;3299;42.004;24.868;2023-04-23T00:03:07;98209.19;;;11.81;100.00
6532;BME280;3299;42.004;24.868;2023-04-23T00:05:37;98156.84;;;11.54;100.00
6532;BME280;3299;42.004;24.868;2023-04-23T00:08:03;98227.81;;;11.86;100.00
6532;BME280;3299;42.004;24.868;2023-04-23T00:10:28;98217.81;;;11.92;100.00
6532;BME280;3299;42.004;24.868;2023-04-23T00:12:54;98130.34;;;11.39;100.00
6532;BME280;3299;42.004;24.868;2023-04-23T00:15:19;98174.06;;;11.66;100.00
6532;BME280;3299;42.004;24.868;2023-04-23T00:17:47;98179.63;;;11.61;100.00
6532;BME280;3299;42.004;24.868;2023-04-23T00:20:13;98167.59;;;11.60;100.00
6532;BME280;3299;42.004;24.868;2023-04-23T00:22:38;98144.94;;;11.18;100.00
6532;BME280;3299;42.004;24.868;2023-04-23T00:25:05;98232.75;;;11.67;100.00
6532;BME280;3299;42.004;24.868;2023-04-23T00:27:30;98178.03;;;11.37;100.00
6532;BME280;3299;42.004;24.868;2023-04-23T00:29:56;98193.13;;;11.43;100.00
6532;BME280;3299;42.004;24.868;2023-04-23T00:32:21;98211.13;;;11.44;100.00
6532;BME280;3299;42.004;24.868;2023-04-23T00:34:47;98184.50;;;11.31;100.00
6532;BME280;3299;42.004;24.868;2023-04-23T00:37:16;98191.78;;;11.26;100.00
6532;BME280;3299;42.004;24.868;2023-04-23T00:39:42;98201.88;;;11.07;100.00
6532;BME280;3299;42.004;24.868;2023-04-23T00:42:08;98232.16;;;11.29;100.00
6532;BME280;3299;42.004;24.868;2023-04-23T00:44:40;98151.22;;;10.58;100.00
6532;BME280;3299;42.004;24.868;2023-04-23T00:47:08;98215.66;;;10.84;100.00
6532;BME280;3299;42.004;24.868;2023-04-23T00:49:35;98234.81;;;11.05;100.00
6532;BME280;3299;42.004;24.868;2023-04-23T00:52:01;98242.72;;;11.15;100.00
6532;BME280;3299;42.004;24.868;2023-04-23T00:54:27;98161.91;;;10.53;100.00
6532;BME280;3299;42.004;24.868;2023-04-23T00:56:54;98186.38;;;10.60;100.00
6532;BME280;3299;42.004;24.868;2023-04-23T00:59:25;98230.53;;;10.93;100.00
6532;BME280;3299;42.004;24.868;2023-04-23T01:01:51;98212.88;;;10.98;100.00
6532;BME280;3299;42.004;24.868;2023-04-23T01:04:18;98160.47;;;10.73;100.00
6532;BME280;3299;42.004;24.868;2023-04-23T01:06:45;98219.50;;;11.02;100.00
6532;BME280;3299;42.004;24.868;2023-04-23T01:09:12;98244.28;;;11.17;100.00
6532;BME280;3299;42.004;24.868;2023-04-23T01:11:39;98202.38;;;10.89;100.00
6532;BME280;3299;42.004;24.868;2023-04-23T01:14:07;98205.19;;;10.86;100.00
6532;BME280;3299;42.004;24.868;2023-04-23T01:16:33;98220.03;;;10.95;100.00
6532;BME280;3299;42.004;24.868;2023-04-23T01:18:59;98241.19;;;11.12;100.00
6532;BME280;3299;42.004;24.868;2023-04-23T01:21:27;98211.81;;;11.01;100.00
6532;BME280;3299;42.004;24.868;2023-04-23T01:23:53;98246.22;;;11.03;100.00
6532;BME280;3299;42.004;24.868;2023-04-23T01:26:20;98210.28;;;10.87;100.00
6532;BME280;3299;42.004;24.868;2023-04-23T01:28:46;98257.66;;;11.11;100.00
6532;BME280;3299;42.004;24.868;2023-04-23T01:31:11;98195.28;;;10.56;100.00
6532;BME280;3299;42.004;24.868;2023-04-23T01:33:39;98199.59;;;10.45;100.00
6532;BME280;3299;42.004;24.868;2023-04-23T01:36:05;98142.31;;;10.02;100.00
6532;BME280;3299;42.004;24.868;2023-04-23T01:38:32;98248.84;;;10.67;100.00
6532;BME280;3299;42.004;24.868;2023-04-23T01:40:58;98188.84;;;10.38;100.00
6532;BME280;3299;42.004;24.868;2023-04-23T01:43:23;98145.53;;;9.93;100.00
6532;BME280;3299;42.004;24.868;2023-04-23T01:45:49;98237.22;;;10.49;100.00
6532;BME280;3299;42.004;24.868;2023-04-23T01:48:15;98161.44;;;9.87;100.00
6532;BME280;3299;42.004;24.868;2023-04-23T01:50:41;98153.19;;;9.82;100.00
6532;BME280;3299;42.004;24.868;2023-04-23T01:53:07;98241.75;;;10.22;100.00
6532;BME280;3299;42.004;24.868;2023-04-23T01:55:33;98228.03;;;10.09;100.00
6532;BME280;3299;42.004;24.868;2023-04-23T01:58:02;98149.63;;;9.60;100.00
6532;BME280;3299;42.004;24.868;2023-04-23T02:00:27;98136.94;;;9.57;100.00
6532;BME280;3299;42.004;24.868;2023-04-23T02:02:52;98161.78;;;9.70;100.00
6532;BME280;3299;42.004;24.868;2023-04-23T02:05:19;98208.53;;;9.80;100.00
6532;BME280;3299;42.004;24.868;2023-04-23T02:07:47;98247.66;;;9.99;100.00
6532;BME280;3299;42.004;24.868;2023-04-23T02:10:13;98218.44;;;9.86;100.00
6532;BME280;3299;42.004;24.868;2023-04-23T02:12:39;98185.97;;;9.69;100.00
6532;BME280;3299;42.004;24.868;2023-04-23T02:15:06;98156.16;;;9.53;100.00
6532;BME280;3299;42.004;24.868;2023-04-23T02:17:32;98142.81;;;9.47;100.00
6532;BME280;3299;42.004;24.868;2023-04-23T02:19:57;98216.13;;;9.94;100.00
6532;BME280;3299;42.004;24.868;2023-04-23T02:22:23;98203.34;;;9.80;100.00
6532;BME280;3299;42.004;24.868;2023-04-23T02:24:51;98213.66;;;10.05;100.00
6532;BME280;3299;42.004;24.868;2023-04-23T02:27:16;98217.75;;;10.20;100.00
6532;BME280;3299;42.004;24.868;2023-04-23T02:29:42;98196.69;;;9.88;100.00
6532;BME280;3299;42.004;24.868;2023-04-23T02:32:07;98207.69;;;9.92;100.00
6532;BME280;3299;42.004;24.868;2023-04-23T02:34:33;98151.50;;;9.58;100.00
6532;BME280;3299;42.004;24.868;2023-04-23T02:36:58;98232.78;;;10.02;100.00
6532;BME280;3299;42.004;24.868;2023-04-23T02:39:23;98198.91;;;9.82;100.00
6532;BME280;3299;42.004;24.868;2023-04-23T02:41:49;98149.84;;;9.57;100.00
6532;BME280;3299;42.004;24.868;2023-04-23T02:44:14;98237.44;;;10.10;100.00
6532;BME280;3299;42.004;24.868;2023-04-23T02:46:40;98184.09;;;9.84;100.00
6532;BME280;3299;42.004;24.868;2023-04-23T02:49:05;98231.72;;;10.17;100.00
6532;BME280;3299;42.004;24.868;2023-04-23T02:51:31;98225.47;;;10.09;100.00
6532;BME280;3299;42.004;24.868;2023-04-23T02:53:57;98152.91;;;9.74;100.00
6532;BME280;3299;42.004;24.868;2023-04-23T02:56:22;98183.41;;;9.82;100.00
6532;BME280;3299;42.004;24.868;2023-04-23T02:58:48;98206.22;;;10.00;100.00
6532;BME280;3299;42.004;24.868;2023-04-23T03:01:13;98203.72;;;9.99;100.00
6532;BME280;3299;42.004;24.868;2023-04-23T03:03:39;98227.91;;;10.23;100.00
6532;BME280;3299;42.004;24.868;2023-04-23T03:06:05;98151.03;;;9.76;100.00
6532;BME280;3299;42.004;24.868;2023-04-23T03:08:31;98167.31;;;10.02;100.00
6532;BME280;3299;42.004;24.868;2023-04-23T03:10:57;98241.09;;;10.43;100.00
6532;BME280;3299;42.004;24.868;2023-04-23T03:13:22;98169.19;;;10.00;100.00
6532;BME280;3299;42.004;24.868;2023-04-23T03:15:49;98181.19;;;10.01;100.00
6532;BME280;3299;42.004;24.868;2023-04-23T03:18:14;98263.81;;;10.51;100.00
6532;BME280;3299;42.004;24.868;2023-04-23T03:20:42;98239.00;;;10.48;100.00
6532;BME280;3299;42.004;24.868;2023-04-23T03:23:07;98203.50;;;10.27;100.00
6532;BME280;3299;42.004;24.868;2023-04-23T03:25:33;98263.47;;;10.68;100.00
6532;BME280;3299;42.004;24.868;2023-04-23T03:27:59;98191.97;;;10.31;100.00
6532;BME280;3299;42.004;24.868;2023-04-23T03:30:26;98250.97;;;10.62;100.00
6532;BME280;3299;42.004;24.868;2023-04-23T03:32:53;98255.19;;;10.63;100.00
6532;BME280;3299;42.004;24.868;2023-04-23T03:35:19;98252.09;;;10.58;100.00
6532;BME280;3299;42.004;24.868;2023-04-23T03:37:44;98269.38;;;10.57;100.00
6532;BME280;3299;42.004;24.868;2023-04-23T03:40:10;98256.78;;;10.53;100.00
6532;BME280;3299;42.004;24.868;2023-04-23T03:42:35;98183.66;;;10.15;100.00
6532;BME280;3299;42.004;24.868;2023-04-23T03:45:01;98248.44;;;10.37;100.00
6532;BME280;3299;42.004;24.868;2023-04-23T03:47:26;98267.56;;;10.47;100.00
6532;BME280;3299;42.004;24.868;2023-04-23T03:49:53;98212.47;;;10.21;100.00
6532;BME280;3299;42.004;24.868;2023-04-23T03:52:19;98219.91;;;10.26;100.00
6532;BME280;3299;42.004;24.868;2023-04-23T03:54:45;98242.91;;;10.54;100.00
6532;BME280;3299;42.004;24.868;2023-04-23T03:57:10;98235.91;;;10.67;100.00
6532;BME280;3299;42.004;24.868;2023-04-23T03:59:38;98285.31;;;11.11;100.00
6532;BME280;3299;42.004;24.868;2023-04-23T04:02:04;98288.44;;;11.27;100.00
6532;BME280;3299;42.004;24.868;2023-04-23T04:04:30;98203.56;;;10.85;100.00
6532;BME280;3299;42.004;24.868;2023-04-23T04:06:56;98248.00;;;11.13;100.00
6532;BME280;3299;42.004;24.868;2023-04-23T04:09:22;98273.06;;;11.36;100.00
6532;BME280;3299;42.004;24.868;2023-04-23T04:11:47;98285.16;;;11.36;100.00
6532;BME280;3299;42.004;24.868;2023-04-23T04:14:13;98215.91;;;10.92;100.00
6532;BME280;3299;42.004;24.868;2023-04-23T04:16:39;98234.81;;;11.05;100.00
6532;BME280;3299;42.004;24.868;2023-04-23T04:19:04;98293.06;;;11.34;100.00
6532;BME280;3299;42.004;24.868;2023-04-23T04:21:30;98255.53;;;11.05;100.00
6532;BME280;3299;42.004;24.868;2023-04-23T04:23:56;98293.56;;;11.16;100.00
6532;BME280;3299;42.004;24.868;2023-04-23T04:26:22;98270.94;;;11.07;100.00
6532;BME280;3299;42.004;24.868;2023-04-23T04:28:49;98268.78;;;11.01;100.00
6532;BME280;3299;42.004;24.868;2023-04-23T04:31:15;98314.59;;;11.35;100.00
6532;BME280;3299;42.004;24.868;2023-04-23T04:33:41;98287.69;;;11.14;100.00
6532;BME280;3299;42.004;24.868;2023-04-23T04:36:07;98318.94;;;11.23;100.00
6532;BME280;3299;42.004;24.868;2023-04-23T04:38:33;98226.56;;;10.53;100.00
6532;BME280;3299;42.004;24.868;2023-04-23T04:41:02;98237.22;;;10.49;100.00
6532;BME280;3299;42.004;24.868;2023-04-23T04:43:27;98305.63;;;10.81;100.00
6532;BME280;3299;42.004;24.868;2023-04-23T04:45:53;98287.63;;;10.79;100.00
6532;BME280;3299;42.004;24.868;2023-04-23T04:48:19;98254.03;;;10.67;100.00
6532;BME280;3299;42.004;24.868;2023-04-23T04:50:44;98239.88;;;10.60;100.00
6532;BME280;3299;42.004;24.868;2023-04-23T04:53:11;98294.13;;;11.08;100.00
6532;BME280;3299;42.004;24.868;2023-04-23T04:55:36;98317.97;;;11.24;100.00
6532;BME280;3299;42.004;24.868;2023-04-23T04:58:01;98303.63;;;11.31;100.00
6532;BME280;3299;42.004;24.868;2023-04-23T05:00:28;98345.13;;;11.66;100.00
6532;BME280;3299;42.004;24.868;2023-04-23T05:02:56;98260.06;;;11.25;100.00
6532;BME280;3299;42.004;24.868;2023-04-23T05:05:22;98340.25;;;11.85;100.00
6532;BME280;3299;42.004;24.868;2023-04-23T05:07:48;98296.16;;;11.74;100.00
6532;BME280;3299;42.004;24.868;2023-04-23T05:10:14;98312.91;;;11.92;100.00
6532;BME280;3299;42.004;24.868;2023-04-23T05:12:41;98266.69;;;11.75;100.00
6532;BME280;3299;42.004;24.868;2023-04-23T05:15:08;98350.44;;;12.32;100.00
6532;BME280;3299;42.004;24.868;2023-04-23T05:17:34;98332.75;;;12.37;100.00
6532;BME280;3299;42.004;24.868;2023-04-23T05:20:00;98312.59;;;12.40;100.00
6532;BME280;3299;42.004;24.868;2023-04-23T05:22:26;98350.53;;;12.85;100.00
6532;BME280;3299;42.004;24.868;2023-04-23T05:24:51;98273.06;;;12.48;100.00
6532;BME280;3299;42.004;24.868;2023-04-23T05:27:17;98327.63;;;13.01;100.00
6532;BME280;3299;42.004;24.868;2023-04-23T05:29:42;98351.28;;;13.30;100.00
6532;BME280;3299;42.004;24.868;2023-04-23T05:32:08;98352.78;;;13.43;100.00
6532;BME280;3299;42.004;24.868;2023-04-23T05:34:33;98361.97;;;13.47;100.00
6532;BME280;3299;42.004;24.868;2023-04-23T05:37:01;98291.34;;;13.11;100.00
6532;BME280;3299;42.004;24.868;2023-04-23T05:39:27;98362.50;;;13.62;100.00
6532;BME280;3299;42.004;24.868;2023-04-23T05:41:52;98368.59;;;13.72;100.00
6532;BME280;3299;42.004;24.868;2023-04-23T05:44:18;98369.88;;;13.77;100.00
6532;BME280;3299;42.004;24.868;2023-04-23T05:46:43;98328.00;;;13.60;100.00
6532;BME280;3299;42.004;24.868;2023-04-23T05:49:08;98373.38;;;13.87;100.00
6532;BME280;3299;42.004;24.868;2023-04-23T05:51:34;98377.03;;;13.85;100.00
6532;BME280;3299;42.004;24.868;2023-04-23T05:53:59;98353.13;;;13.70;100.00
6532;BME280;3299;42.004;24.868;2023-04-23T05:56:25;98351.59;;;13.68;100.00
6532;BME280;3299;42.004;24.868;2023-04-23T05:58:50;98383.97;;;13.95;100.00
6532;BME280;3299;42.004;24.868;2023-04-23T06:01:16;98380.84;;;14.01;100.00
6532;BME280;3299;42.004;24.868;2023-04-23T06:03:42;98390.19;;;14.04;100.00
6532;BME280;3299;42.004;24.868;2023-04-23T06:06:10;98317.50;;;13.61;100.00
6532;BME280;3299;42.004;24.868;2023-04-23T06:08:37;98376.59;;;14.00;100.00
6532;BME280;3299;42.004;24.868;2023-04-23T06:11:03;98337.34;;;13.83;100.00
6532;BME280;3299;42.004;24.868;2023-04-23T06:13:28;98379.59;;;14.16;100.00
6532;BME280;3299;42.004;24.868;2023-04-23T06:15:55;98393.97;;;14.31;100.00
6532;BME280;3299;42.004;24.868;2023-04-23T06:18:21;98401.38;;;14.36;100.00
6532;BME280;3299;42.004;24.868;2023-04-23T06:20:46;98387.41;;;14.37;99.99
6532;BME280;3299;42.004;24.868;2023-04-23T06:23:13;98368.50;;;14.35;99.16
6532;BME280;3299;42.004;24.868;2023-04-23T06:25:39;98377.31;;;14.43;98.45
6532;BME280;3299;42.004;24.868;2023-04-23T06:28:04;98394.38;;;14.57;98.95
6532;BME280;3299;42.004;24.868;2023-04-23T06:30:30;98375.44;;;14.55;96.41
6532;BME280;3299;42.004;24.868;2023-04-23T06:32:55;98347.72;;;14.44;96.22
6532;BME280;3299;42.004;24.868;2023-04-23T06:35:20;98323.81;;;14.30;95.23
6532;BME280;3299;42.004;24.868;2023-04-23T06:37:46;98381.38;;;14.57;94.55
6532;BME280;3299;42.004;24.868;2023-04-23T06:40:11;98365.84;;;14.55;95.72
6532;BME280;3299;42.004;24.868;2023-04-23T06:42:37;98369.19;;;14.67;95.62
6532;BME280;3299;42.004;24.868;2023-04-23T06:45:02;98348.31;;;14.57;95.08
6532;BME280;3299;42.004;24.868;2023-04-23T06:47:29;98331.03;;;14.56;93.76
6532;BME280;3299;42.004;24.868;2023-04-23T06:49:55;98329.28;;;14.57;93.25
6532;BME280;3299;42.004;24.868;2023-04-23T06:52:21;98353.66;;;14.95;92.22
6532;BME280;3299;42.004;24.868;2023-04-23T06:54:46;98329.22;;;14.87;91.60
6532;BME280;3299;42.004;24.868;2023-04-23T06:57:12;98331.56;;;14.90;91.92
6532;BME280;3299;42.004;24.868;2023-04-23T06:59:37;98354.78;;;15.12;90.16
6532;BME280;3299;42.004;24.868;2023-04-23T07:02:02;98329.81;;;15.00;90.03
6532;BME280;3299;42.004;24.868;2023-04-23T07:04:28;98395.47;;;15.43;90.24
6532;BME280;3299;42.004;24.868;2023-04-23T07:06:53;98385.59;;;15.46;89.57
6532;BME280;3299;42.004;24.868;2023-04-23T07:09:19;98393.28;;;15.67;88.50
6532;BME280;3299;42.004;24.868;2023-04-23T07:11:44;98335.03;;;15.28;87.53
6532;BME280;3299;42.004;24.868;2023-04-23T07:14:10;98391.94;;;15.63;88.66
6532;BME280;3299;42.004;24.868;2023-04-23T07:16:35;98336.69;;;15.29;87.72
6532;BME280;3299;42.004;24.868;2023-04-23T07:19:01;98402.63;;;15.79;87.39
6532;BME280;3299;42.004;24.868;2023-04-23T07:21:27;98406.50;;;15.84;87.33
6532;BME280;3299;42.004;24.868;2023-04-23T07:23:55;98411.16;;;15.81;87.41
6532;BME280;3299;42.004;24.868;2023-04-23T07:26:21;98336.59;;;15.40;87.29
6532;BME280;3299;42.004;24.868;2023-04-23T07:28:46;98368.16;;;15.66;86.72
6532;BME280;3299;42.004;24.868;2023-04-23T07:31:13;98399.19;;;15.97;85.19
6532;BME280;3299;42.004;24.868;2023-04-23T07:33:38;98372.44;;;15.86;84.84
6532;BME280;3299;42.004;24.868;2023-04-23T07:36:04;98367.47;;;15.83;85.01
6532;BME280;3299;42.004;24.868;2023-04-23T07:38:29;98389.44;;;15.90;84.22
6532;BME280;3299;42.004;24.868;2023-04-23T07:40:55;98405.91;;;16.09;84.29
6532;BME280;3299;42.004;24.868;2023-04-23T07:43:20;98363.91;;;15.84;84.71
6532;BME280;3299;42.004;24.868;2023-04-23T07:45:46;98400.84;;;16.17;84.75
6532;BME280;3299;42.004;24.868;2023-04-23T07:48:11;98397.28;;;16.09;83.93
6532;BME280;3299;42.004;24.868;2023-04-23T07:50:37;98365.28;;;15.88;85.16
6532;BME280;3299;42.004;24.868;2023-04-23T07:53:02;98399.59;;;16.12;84.05
6532;BME280;3299;42.004;24.868;2023-04-23T07:55:27;98345.09;;;15.90;82.76
6532;BME280;3299;42.004;24.868;2023-04-23T07:57:53;98400.94;;;16.25;80.32
6532;BME280;3299;42.004;24.868;2023-04-23T08:00:18;98388.72;;;16.26;81.40
6532;BME280;3299;42.004;24.868;2023-04-23T08:02:44;98354.53;;;16.19;81.37
6532;BME280;3299;42.004;24.868;2023-04-23T08:05:09;98360.56;;;16.39;79.86
6532;BME280;3299;42.004;24.868;2023-04-23T08:07:35;98328.09;;;16.32;79.94
6532;BME280;3299;42.004;24.868;2023-04-23T08:10:00;98389.59;;;16.63;76.06
6532;BME280;3299;42.004;24.868;2023-04-23T08:12:30;98362.69;;;16.53;77.47
6532;BME280;3299;42.004;24.868;2023-04-23T08:14:58;98399.72;;;16.85;75.81
6532;BME280;3299;42.004;24.868;2023-04-23T08:17:23;98368.41;;;16.66;75.32
6532;BME280;3299;42.004;24.868;2023-04-23T08:19:49;98394.44;;;16.94;72.97
6532;BME280;3299;42.004;24.868;2023-04-23T08:22:14;98398.69;;;16.95;74.11
6532;BME280;3299;42.004;24.868;2023-04-23T08:24:41;98323.63;;;16.61;73.02
6532;BME280;3299;42.004;24.868;2023-04-23T08:27:07;98318.63;;;16.67;71.69
6532;BME280;3299;42.004;24.868;2023-04-23T08:29:32;98386.72;;;16.93;72.11
6532;BME280;3299;42.004;24.868;2023-04-23T08:31:57;98374.69;;;16.82;72.96
6532;BME280;3299;42.004;24.868;2023-04-23T08:34:23;98364.09;;;16.74;73.51
6532;BME280;3299;42.004;24.868;2023-04-23T08:36:48;98330.34;;;16.63;73.83
6532;BME280;3299;42.004;24.868;2023-04-23T08:39:14;98307.03;;;16.43;70.91
6532;BME280;3299;42.004;24.868;2023-04-23T08:41:40;98315.41;;;16.37;70.43
6532;BME280;3299;42.004;24.868;2023-04-23T08:44:28;98380.19;;;16.79;69.34
6532;BME280;3299;42.004;24.868;2023-04-23T08:46:55;98305.72;;;16.39;70.88
6532;BME280;3299;42.004;24.868;2023-04-23T08:49:22;98305.41;;;16.32;71.49
6532;BME280;3299;42.004;24.868;2023-04-23T08:51:53;98366.97;;;16.44;72.16
6532;BME280;3299;42.004;24.868;2023-04-23T08:54:26;98347.22;;;16.23;72.26
6532;BME280;3299;42.004;24.868;2023-04-23T08:56:54;98313.84;;;16.17;72.12
6532;BME280;3299;42.004;24.868;2023-04-23T08:59:22;98352.28;;;16.43;71.79
6532;BME280;3299;42.004;24.868;2023-04-23T09:01:48;98337.44;;;16.25;71.59
6532;BME280;3299;42.004;24.868;2023-04-23T09:04:14;98374.00;;;16.44;73.19
6532;BME280;3299;42.004;24.868;2023-04-23T09:06:44;98369.41;;;16.55;72.36
6532;BME280;3299;42.004;24.868;2023-04-23T09:09:13;98359.84;;;16.73;71.42
6532;BME280;3299;42.004;24.868;2023-04-23T09:11:39;98332.72;;;16.57;70.70
6532;BME280;3299;42.004;24.868;2023-04-23T09:14:05;98318.69;;;16.58;71.25
6532;BME280;3299;42.004;24.868;2023-04-23T09:16:32;98292.03;;;16.54;69.72
6532;BME280;3299;42.004;24.868;2023-04-23T09:18:57;98297.19;;;16.64;69.60
6532;BME280;3299;42.004;24.868;2023-04-23T09:21:23;98295.56;;;16.63;69.76
6532;BME280;3299;42.004;24.868;2023-04-23T09:23:51;98353.13;;;16.98;68.41
6532;BME280;3299;42.004;24.868;2023-04-23T09:26:20;98347.84;;;17.07;69.13
6532;BME280;3299;42.004;24.868;2023-04-23T09:28:49;98355.31;;;17.02;68.14
6532;BME280;3299;42.004;24.868;2023-04-23T09:31:22;98318.91;;;16.91;67.89
6532;BME280;3299;42.004;24.868;2023-04-23T09:33:52;98346.59;;;17.29;63.44
6532;BME280;3299;42.004;24.868;2023-04-23T09:36:21;98358.31;;;17.52;62.54
6532;BME280;3299;42.004;24.868;2023-04-23T09:38:48;98293.91;;;17.24;63.63
6532;BME280;3299;42.004;24.868;2023-04-23T09:41:27;98297.69;;;17.39;62.83
6532;BME280;3299;42.004;24.868;2023-04-23T09:43:53;98316.22;;;17.63;63.10
6532;BME280;3299;42.004;24.868;2023-04-23T09:46:37;98353.69;;;17.63;61.06
6532;BME280;3299;42.004;24.868;2023-04-23T09:49:04;98326.47;;;17.74;60.04
6532;BME280;3299;42.004;24.868;2023-04-23T09:51:44;98341.25;;;17.83;60.58
6532;BME280;3299;42.004;24.868;2023-04-23T09:54:20;98298.06;;;17.44;62.15
6532;BME280;3299;42.004;24.868;2023-04-23T09:56:52;98338.03;;;17.71;62.17
6532;BME280;3299;42.004;24.868;2023-04-23T09:59:29;98345.16;;;17.61;61.07
6532;BME280;3299;42.004;24.868;2023-04-23T10:01:55;98247.97;;;17.04;61.89
6532;BME280;3299;42.004;24.868;2023-04-23T10:04:25;98255.91;;;17.29;60.23
6532;BME280;3299;42.004;24.868;2023-04-23T10:06:58;98277.94;;;17.62;60.51
6532;BME280;3299;42.004;24.868;2023-04-23T10:09:24;98259.84;;;17.68;59.69
6532;BME280;3299;42.004;24.868;2023-04-23T10:11:55;98291.84;;;18.05;60.57
6532;BME280;3299;42.004;24.868;2023-04-23T10:14:22;98322.69;;;18.45;60.15
6532;BME280;3299;42.004;24.868;2023-04-23T10:16:50;98293.56;;;18.48;58.73
6532;BME280;3299;42.004;24.868;2023-04-23T10:19:21;98259.81;;;18.45;57.48
6532;BME280;3299;42.004;24.868;2023-04-23T10:21:50;98257.91;;;18.55;57.19
6532;BME280;3299;42.004;24.868;2023-04-23T10:24:19;98263.84;;;18.73;57.87
6532;BME280;3299;42.004;24.868;2023-04-23T10:26:48;98264.66;;;18.65;58.18
6532;BME280;3299;42.004;24.868;2023-04-23T10:29:14;98299.13;;;18.86;59.20
6532;BME280;3299;42.004;24.868;2023-04-23T10:31:41;98267.75;;;18.69;60.26
6532;BME280;3299;42.004;24.868;2023-04-23T10:34:09;98276.34;;;18.87;58.46
6532;BME280;3299;42.004;24.868;2023-04-23T10:36:37;98232.69;;;18.54;58.29
6532;BME280;3299;42.004;24.868;2023-04-23T10:39:03;98227.59;;;18.60;58.18
6532;BME280;3299;42.004;24.868;2023-04-23T10:41:37;98282.84;;;18.67;58.64
6532;BME280;3299;42.004;24.868;2023-04-23T10:44:10;98300.41;;;18.74;59.06
6532;BME280;3299;42.004;24.868;2023-04-23T10:46:36;98227.47;;;18.28;58.73
6532;BME280;3299;42.004;24.868;2023-04-23T10:49:12;98293.31;;;18.59;57.74
6532;BME280;3299;42.004;24.868;2023-04-23T10:51:39;98248.91;;;18.24;57.90
6532;BME280;3299;42.004;24.868;2023-04-23T10:54:07;98290.69;;;18.59;57.43
6532;BME280;3299;42.004;24.868;2023-04-23T10:56:34;98241.56;;;18.69;56.30
6532;BME280;3299;42.004;24.868;2023-04-23T10:58:59;98274.78;;;19.18;56.46
6532;BME280;3299;42.004;24.868;2023-04-23T11:01:27;98231.81;;;19.19;54.49
6532;BME280;3299;42.004;24.868;2023-04-23T11:03:54;98265.84;;;19.60;54.14
6532;BME280;3299;42.004;24.868;2023-04-23T11:09:45;98279.69;;;20.25;52.81
6532;BME280;3299;42.004;24.868;2023-04-23T11:14:49;98246.84;;;20.21;51.02
6532;BME280;3299;42.004;24.868;2023-04-23T11:20:13;98257.59;;;19.71;51.47
6532;BME280;3299;42.004;24.868;2023-04-23T11:22:42;98242.03;;;19.46;51.44
6532;BME280;3299;42.004;24.868;2023-04-23T11:25:12;98263.19;;;19.68;51.63
6532;BME280;3299;42.004;24.868;2023-04-23T11:27:39;98185.75;;;19.56;52.14
6532;BME280;3299;42.004;24.868;2023-04-23T11:30:10;98218.34;;;20.10;49.49
6532;BME280;3299;42.004;24.868;2023-04-23T11:32:38;98232.56;;;20.31;49.16
6532;BME280;3299;42.004;24.868;2023-04-23T11:35:05;98249.28;;;20.38;48.96
6532;BME280;3299;42.004;24.868;2023-04-23T11:37:31;98174.66;;;20.01;49.06
6532;BME280;3299;42.004;24.868;2023-04-23T11:40:04;98253.41;;;20.71;48.81
6532;BME280;3299;42.004;24.868;2023-04-23T11:42:32;98203.06;;;20.44;47.92
6532;BME280;3299;42.004;24.868;2023-04-23T11:45:05;98177.00;;;20.42;46.33
6532;BME280;3299;42.004;24.868;2023-04-23T11:47:31;98237.88;;;20.84;45.62
6532;BME280;3299;42.004;24.868;2023-04-23T11:50:00;98189.88;;;20.90;45.52
6532;BME280;3299;42.004;24.868;2023-04-23T11:52:25;98246.59;;;21.38;44.67
6532;BME280;3299;42.004;24.868;2023-04-23T11:54:51;98176.97;;;20.73;45.63
6532;BME280;3299;42.004;24.868;2023-04-23T11:57:16;98225.75;;;21.28;44.22
6532;BME280;3299;42.004;24.868;2023-04-23T11:59:41;98212.94;;;21.48;44.33
6532;BME280;3299;42.004;24.868;2023-04-23T12:02:07;98222.34;;;21.65;44.11
6532;BME280;3299;42.004;24.868;2023-04-23T12:04:32;98236.06;;;21.38;44.63
6532;BME280;3299;42.004;24.868;2023-04-23T12:06:58;98163.56;;;21.13;43.86
6532;BME280;3299;42.004;24.868;2023-04-23T12:09:25;98193.38;;;21.28;44.31
6532;BME280;3299;42.004;24.868;2023-04-23T12:11:51;98196.22;;;21.41;44.22
6532;BME280;3299;42.004;24.868;2023-04-23T12:14:19;98159.53;;;21.39;43.52
6532;BME280;3299;42.004;24.868;2023-04-23T12:16:48;98196.47;;;21.68;42.92
6532;BME280;3299;42.004;24.868;2023-04-23T12:19:21;98175.56;;;21.52;42.33
6532;BME280;3299;42.004;24.868;2023-04-23T12:24:19;98167.56;;;21.60;41.65
6532;BME280;3299;42.004;24.868;2023-04-23T12:26:44;98131.63;;;21.16;42.11
6532;BME280;3299;42.004;24.868;2023-04-23T12:29:13;98195.50;;;21.47;42.83
6532;BME280;3299;42.004;24.868;2023-04-23T12:31:38;98157.66;;;21.62;42.81
6532;BME280;3299;42.004;24.868;2023-04-23T12:34:05;98192.13;;;22.04;42.96
6532;BME280;3299;42.004;24.868;2023-04-23T12:36:32;98185.34;;;22.10;42.13
6532;BME280;3299;42.004;24.868;2023-04-23T12:41:54;98129.41;;;21.79;41.74
6532;BME280;3299;42.004;24.868;2023-04-23T12:44:21;98185.25;;;22.18;41.48
6532;BME280;3299;42.004;24.868;2023-04-23T12:47:06;98146.16;;;22.21;41.39
6532;BME280;3299;42.004;24.868;2023-04-23T12:49:33;98134.00;;;21.77;42.11
6532;BME280;3299;42.004;24.868;2023-04-23T12:52:01;98172.34;;;21.79;41.73
6532;BME280;3299;42.004;24.868;2023-04-23T12:54:28;98172.44;;;22.00;41.52
6532;BME280;3299;42.004;24.868;2023-04-23T12:56:54;98123.44;;;22.20;41.30
6532;BME280;3299;42.004;24.868;2023-04-23T12:59:20;98137.03;;;22.53;39.54
6532;BME280;3299;42.004;24.868;2023-04-23T13:01:46;98112.31;;;22.75;39.44
6532;BME280;3299;42.004;24.868;2023-04-23T13:04:11;98134.34;;;22.46;39.26
6532;BME280;3299;42.004;24.868;2023-04-23T13:06:37;98115.66;;;22.48;38.95
6532;BME280;3299;42.004;24.868;2023-04-23T13:09:02;98106.22;;;22.74;38.71
6532;BME280;3299;42.004;24.868;2023-04-23T13:11:30;98145.91;;;23.08;38.03
6532;BME280;3299;42.004;24.868;2023-04-23T13:13:56;98124.16;;;22.85;37.61
6532;BME280;3299;42.004;24.868;2023-04-23T13:16:21;98083.34;;;22.60;37.54
6532;BME280;3299;42.004;24.868;2023-04-23T13:18:47;98154.78;;;23.01;37.17